sensor_id;sensor_type;location;lat;lon;timestamp;temperature;humidity
2973;DHT22;1496;51.404;7.232;2023-12-07T00:01:47;2.10;99.90
2973;DHT22;1496;51.404;7.232;2023-12-07T00:04:12;2.20;99.90
2973;DHT22;1496;51.404;7.232;2023-12-07T00:06:38;2.10;99.90
2973;DHT22;1496;51.404;7.232;2023-12-07T00:09:03;2.50;99.90
2973;DHT22;1496;51.404;7.232;2023-12-07T00:11:29;2.50;99.90
2973;DHT22;1496;51.404;7.232;2023-12-07T00:13:55;2.80;99.90
2973;DHT22;1496;51.404;7.232;2023-12-07T00:16:21;3.00;99.90
2973;DHT22;1496;51.404;7.232;2023-12-07T00:18:47;2.70;99.90
2973;DHT22;1496;51.404;7.232;2023-12-07T00:21:13;2.50;99.90
2973;DHT22;1496;51.404;7.232;2023-12-07T00:23:38;2.10;99.90
2973;DHT22;1496;51.404;7.232;2023-12-07T00:26:04;2.00;99.90
2973;DHT22;1496;51.404;7.232;2023-12-07T00:28:30;2.00;99.90
2973;DHT22;1496;51.404;7.232;2023-12-07T00:30:56;2.00;99.90
2973;DHT22;1496;51.404;7.232;2023-12-07T00:33:21;2.00;99.90
2973;DHT22;1496;51.404;7.232;2023-12-07T00:35:47;1.90;99.90
2973;DHT22;1496;51.404;7.232;2023-12-07T00:38:13;2.00;99.90
2973;DHT22;1496;51.404;7.232;2023-12-07T00:40:39;2.10;99.90
2973;DHT22;1496;51.404;7.232;2023-12-07T00:43:06;1.90;99.90
2973;DHT22;1496;51.404;7.232;2023-12-07T00:45:32;1.90;99.90
2973;DHT22;1496;51.404;7.232;2023-12-07T00:47:58;2.40;99.90
2973;DHT22;1496;51.404;7.232;2023-12-07T00:50:23;1.90;99.90
2973;DHT22;1496;51.404;7.232;2023-12-07T00:52:49;2.00;99.90
2973;DHT22;1496;51.404;7.232;2023-12-07T00:55:15;2.40;99.90
2973;DHT22;1496;51.404;7.232;2023-12-07T00:57:40;2.00;99.90
2973;DHT22;1496;51.404;7.232;2023-12-07T01:00:07;2.30;99.90
2973;DHT22;1496;51.404;7.232;2023-12-07T01:02:33;2.30;99.90
2973;DHT22;1496;51.404;7.232;2023-12-07T01:04:59;2.00;99.90
2973;DHT22;1496;51.404;7.232;2023-12-07T01:07:25;2.20;99.90
2973;DHT22;1496;51.404;7.232;2023-12-07T01:09:51;2.10;99.90
2973;DHT22;1496;51.404;7.232;2023-12-07T01:12:16;2.10;99.90
2973;DHT22;1496;51.404;7.232;2023-12-07T01:14:42;2.10;99.90
2973;DHT22;1496;51.404;7.232;2023-12-07T01:17:07;2.30;99.90
2973;DHT22;1496;51.404;7.232;2023-12-07T01:19:33;2.00;99.90
2973;DHT22;1496;51.404;7.232;2023-12-07T01:21:59;2.20;99.90
2973;DHT22;1496;51.404;7.232;2023-12-07T01:24:25;2.10;99.90
2973;DHT22;1496;51.404;7.232;2023-12-07T01:26:51;2.20;99.90
2973;DHT22;1496;51.404;7.232;2023-12-07T01:29:16;2.20;99.90
2973;DHT22;1496;51.404;7.232;2023-12-07T01:31:43;2.20;99.90
2973;DHT22;1496;51.404;7.232;2023-12-07T01:34:09;2.40;99.90
2973;DHT22;1496;51.404;7.232;2023-12-07T01:36:35;2.10;99.90
2973;DHT22;1496;51.404;7.232;2023-12-07T01:39:00;2.30;99.90
2973;DHT22;1496;51.404;7.232;2023-12-07T01:41:26;2.50;99.90
2973;DHT22;1496;51.404;7.232;2023-12-07T01:43:51;2.30;99.90
2973;DHT22;1496;51.404;7.232;2023-12-07T01:46:18;2.20;99.90
2973;DHT22;1496;51.404;7.232;2023-12-07T01:48:44;2.40;99.90
2973;DHT22;1496;51.404;7.232;2023-12-07T01:51:14;2.30;99.90
2973;DHT22;1496;51.404;7.232;2023-12-07T01:53:40;2.60;99.90
2973;DHT22;1496;51.404;7.232;2023-12-07T01:56:07;2.30;99.90
2973;DHT22;1496;51.404;7.232;2023-12-07T01:58:34;1.90;99.90
2973;DHT22;1496;51.404;7.232;2023-12-07T02:01:01;2.20;99.90
2973;DHT22;1496;51.404;7.232;2023-12-07T02:03:27;2.20;99.90
2973;DHT22;1496;51.404;7.232;2023-12-07T02:05:55;2.10;99.90
2973;DHT22;1496;51.404;7.232;2023-12-07T02:08:22;2.50;99.90
2973;DHT22;1496;51.404;7.232;2023-12-07T02:10:48;2.30;99.90
2973;DHT22;1496;51.404;7.232;2023-12-07T02:13:14;2.30;99.90
2973;DHT22;1496;51.404;7.232;2023-12-07T02:15:39;2.20;99.90
2973;DHT22;1496;51.404;7.232;2023-12-07T02:18:14;2.40;99.90
2973;DHT22;1496;51.404;7.232;2023-12-07T02:20:47;2.10;99.90
2973;DHT22;1496;51.404;7.232;2023-12-07T02:23:18;1.60;99.90
2973;DHT22;1496;51.404;7.232;2023-12-07T02:28:59;1.50;99.90
2973;DHT22;1496;51.404;7.232;2023-12-07T02:31:25;2.00;99.90
2973;DHT22;1496;51.404;7.232;2023-12-07T02:33:50;2.20;99.90
2973;DHT22;1496;51.404;7.232;2023-12-07T02:36:19;2.00;99.90
2973;DHT22;1496;51.404;7.232;2023-12-07T02:38:47;2.30;99.90
2973;DHT22;1496;51.404;7.232;2023-12-07T02:41:15;2.10;99.90
2973;DHT22;1496;51.404;7.232;2023-12-07T02:43:41;1.90;99.90
2973;DHT22;1496;51.404;7.232;2023-12-07T02:46:07;2.30;99.90
2973;DHT22;1496;51.404;7.232;2023-12-07T02:48:33;1.90;99.90
2973;DHT22;1496;51.404;7.232;2023-12-07T02:50:58;2.10;99.90
2973;DHT22;1496;51.404;7.232;2023-12-07T02:53:24;1.80;99.90
2973;DHT22;1496;51.404;7.232;2023-12-07T02:55:51;1.80;99.90
2973;DHT22;1496;51.404;7.232;2023-12-07T02:58:17;1.80;99.90
2973;DHT22;1496;51.404;7.232;2023-12-07T03:00:42;1.90;99.90
2973;DHT22;1496;51.404;7.232;2023-12-07T03:03:08;1.90;99.90
2973;DHT22;1496;51.404;7.232;2023-12-07T03:05:34;1.40;99.90
2973;DHT22;1496;51.404;7.232;2023-12-07T03:07:59;1.40;99.90
2973;DHT22;1496;51.404;7.232;2023-12-07T03:10:25;1.40;99.90
2973;DHT22;1496;51.404;7.232;2023-12-07T03:12:51;1.40;99.90
2973;DHT22;1496;51.404;7.232;2023-12-07T03:15:16;1.60;99.90
2973;DHT22;1496;51.404;7.232;2023-12-07T03:17:42;1.60;99.90
2973;DHT22;1496;51.404;7.232;2023-12-07T03:20:09;1.30;99.90
2973;DHT22;1496;51.404;7.232;2023-12-07T03:22:35;1.80;99.90
2973;DHT22;1496;51.404;7.232;2023-12-07T03:25:01;1.80;99.90
2973;DHT22;1496;51.404;7.232;2023-12-07T03:27:27;1.60;99.90
2973;DHT22;1496;51.404;7.232;2023-12-07T03:29:54;1.50;99.90
2973;DHT22;1496;51.404;7.232;2023-12-07T03:32:19;1.30;99.90
2973;DHT22;1496;51.404;7.232;2023-12-07T03:34:45;1.40;99.90
2973;DHT22;1496;51.404;7.232;2023-12-07T03:37:11;1.40;99.90
2973;DHT22;1496;51.404;7.232;2023-12-07T03:39:36;1.70;99.90
2973;DHT22;1496;51.404;7.232;2023-12-07T03:42:02;1.70;99.90
2973;DHT22;1496;51.404;7.232;2023-12-07T03:44:28;1.30;99.90
2973;DHT22;1496;51.404;7.232;2023-12-07T03:46:54;1.80;99.90
2973;DHT22;1496;51.404;7.232;2023-12-07T03:49:20;1.80;99.90
2973;DHT22;1496;51.404;7.232;2023-12-07T03:51:46;1.80;99.90
2973;DHT22;1496;51.404;7.232;2023-12-07T03:54:12;2.00;99.90
2973;DHT22;1496;51.404;7.232;2023-12-07T03:56:37;2.20;99.90
2973;DHT22;1496;51.404;7.232;2023-12-07T03:59:03;2.00;99.90
2973;DHT22;1496;51.404;7.232;2023-12-07T04:01:29;2.30;99.90
2973;DHT22;1496;51.404;7.232;2023-12-07T04:03:56;1.90;99.90
2973;DHT22;1496;51.404;7.232;2023-12-07T04:06:23;2.20;99.90
2973;DHT22;1496;51.404;7.232;2023-12-07T04:08:48;1.80;99.90
2973;DHT22;1496;51.404;7.232;2023-12-07T04:11:14;1.60;99.90
2973;DHT22;1496;51.404;7.232;2023-12-07T04:13:40;1.60;99.90
2973;DHT22;1496;51.404;7.232;2023-12-07T04:16:07;2.00;99.90
2973;DHT22;1496;51.404;7.232;2023-12-07T04:18:33;1.90;99.90
2973;DHT22;1496;51.404;7.232;2023-12-07T04:20:59;1.90;99.90
2973;DHT22;1496;51.404;7.232;2023-12-07T04:23:25;2.00;99.90
2973;DHT22;1496;51.404;7.232;2023-12-07T04:25:50;2.10;99.90
2973;DHT22;1496;51.404;7.232;2023-12-07T04:28:16;1.90;99.90
2973;DHT22;1496;51.404;7.232;2023-12-07T04:30:41;2.00;99.90
2973;DHT22;1496;51.404;7.232;2023-12-07T04:33:07;2.20;99.90
2973;DHT22;1496;51.404;7.232;2023-12-07T04:35:33;1.70;99.90
2973;DHT22;1496;51.404;7.232;2023-12-07T04:37:59;2.20;99.90
2973;DHT22;1496;51.404;7.232;2023-12-07T04:40:25;2.20;99.90
2973;DHT22;1496;51.404;7.232;2023-12-07T04:42:51;2.00;99.90
2973;DHT22;1496;51.404;7.232;2023-12-07T04:45:17;2.30;99.90
2973;DHT22;1496;51.404;7.232;2023-12-07T04:47:42;2.30;99.90
2973;DHT22;1496;51.404;7.232;2023-12-07T04:50:08;2.10;99.90
2973;DHT22;1496;51.404;7.232;2023-12-07T04:52:37;1.80;99.90
2973;DHT22;1496;51.404;7.232;2023-12-07T04:55:04;2.10;99.90
2973;DHT22;1496;51.404;7.232;2023-12-07T05:00:44;2.20;99.90
2973;DHT22;1496;51.404;7.232;2023-12-07T05:03:10;2.40;99.90
2973;DHT22;1496;51.404;7.232;2023-12-07T05:05:35;2.50;99.90
2973;DHT22;1496;51.404;7.232;2023-12-07T05:08:01;2.60;99.90
2973;DHT22;1496;51.404;7.232;2023-12-07T05:10:27;2.30;99.90
2973;DHT22;1496;51.404;7.232;2023-12-07T05:12:53;2.30;99.90
2973;DHT22;1496;51.404;7.232;2023-12-07T05:15:18;2.20;99.90
2973;DHT22;1496;51.404;7.232;2023-12-07T05:17:44;2.40;99.90
2973;DHT22;1496;51.404;7.232;2023-12-07T05:20:10;2.70;99.90
2973;DHT22;1496;51.404;7.232;2023-12-07T05:22:38;2.80;99.90
2973;DHT22;1496;51.404;7.232;2023-12-07T05:25:04;2.70;99.90
2973;DHT22;1496;51.404;7.232;2023-12-07T05:27:30;2.60;99.90
2973;DHT22;1496;51.404;7.232;2023-12-07T05:29:56;2.30;99.90
2973;DHT22;1496;51.404;7.232;2023-12-07T05:32:21;2.10;99.90
2973;DHT22;1496;51.404;7.232;2023-12-07T05:34:47;1.90;99.90
2973;DHT22;1496;51.404;7.232;2023-12-07T05:37:13;2.00;99.90
2973;DHT22;1496;51.404;7.232;2023-12-07T05:39:38;2.20;99.90
2973;DHT22;1496;51.404;7.232;2023-12-07T05:42:05;1.80;99.90
2973;DHT22;1496;51.404;7.232;2023-12-07T05:44:31;2.10;99.90
2973;DHT22;1496;51.404;7.232;2023-12-07T05:46:56;2.00;99.90
2973;DHT22;1496;51.404;7.232;2023-12-07T05:49:23;1.90;99.90
2973;DHT22;1496;51.404;7.232;2023-12-07T05:51:49;2.00;99.90
2973;DHT22;1496;51.404;7.232;2023-12-07T05:54:15;1.70;99.90
2973;DHT22;1496;51.404;7.232;2023-12-07T05:56:41;2.00;99.90
2973;DHT22;1496;51.404;7.232;2023-12-07T05:59:06;1.80;99.90
2973;DHT22;1496;51.404;7.232;2023-12-07T06:01:32;1.80;99.90
2973;DHT22;1496;51.404;7.232;2023-12-07T06:03:58;1.90;99.90
2973;DHT22;1496;51.404;7.232;2023-12-07T06:06:24;2.10;99.90
2973;DHT22;1496;51.404;7.232;2023-12-07T06:08:49;2.40;99.90
2973;DHT22;1496;51.404;7.232;2023-12-07T06:11:15;2.40;99.90
2973;DHT22;1496;51.404;7.232;2023-12-07T06:13:41;2.40;99.90
2973;DHT22;1496;51.404;7.232;2023-12-07T06:16:06;2.50;99.90
2973;DHT22;1496;51.404;7.232;2023-12-07T06:18:33;2.60;99.90
2973;DHT22;1496;51.404;7.232;2023-12-07T06:20:59;2.50;99.90
2973;DHT22;1496;51.404;7.232;2023-12-07T06:23:24;2.40;99.90
2973;DHT22;1496;51.404;7.232;2023-12-07T06:25:50;2.10;99.90
2973;DHT22;1496;51.404;7.232;2023-12-07T06:28:16;2.50;99.90
2973;DHT22;1496;51.404;7.232;2023-12-07T06:30:42;2.30;99.90
2973;DHT22;1496;51.404;7.232;2023-12-07T06:33:08;2.30;99.90
2973;DHT22;1496;51.404;7.232;2023-12-07T06:35:34;2.40;99.90
2973;DHT22;1496;51.404;7.232;2023-12-07T06:38:00;2.50;99.90
2973;DHT22;1496;51.404;7.232;2023-12-07T06:40:26;2.50;99.90
2973;DHT22;1496;51.404;7.232;2023-12-07T06:42:51;2.50;99.90
2973;DHT22;1496;51.404;7.232;2023-12-07T06:45:17;2.70;99.90
2973;DHT22;1496;51.404;7.232;2023-12-07T06:47:43;2.60;99.90
2973;DHT22;1496;51.404;7.232;2023-12-07T06:50:09;2.60;99.90
2973;DHT22;1496;51.404;7.232;2023-12-07T06:52:39;2.60;99.90
2973;DHT22;1496;51.404;7.232;2023-12-07T06:55:05;2.50;99.90
2973;DHT22;1496;51.404;7.232;2023-12-07T06:57:32;2.30;99.90
2973;DHT22;1496;51.404;7.232;2023-12-07T06:59:57;2.60;99.90
2973;DHT22;1496;51.404;7.232;2023-12-07T07:02:23;2.50;99.90
2973;DHT22;1496;51.404;7.232;2023-12-07T07:04:49;2.50;99.90
2973;DHT22;1496;51.404;7.232;2023-12-07T07:07:15;2.50;99.90
2973;DHT22;1496;51.404;7.232;2023-12-07T07:09:41;2.20;99.90
2973;DHT22;1496;51.404;7.232;2023-12-07T07:12:07;2.50;99.90
2973;DHT22;1496;51.404;7.232;2023-12-07T07:14:33;2.40;99.90
2973;DHT22;1496;51.404;7.232;2023-12-07T07:17:00;2.10;99.90
2973;DHT22;1496;51.404;7.232;2023-12-07T07:19:25;2.40;99.90
2973;DHT22;1496;51.404;7.232;2023-12-07T07:21:51;2.50;99.90
2973;DHT22;1496;51.404;7.232;2023-12-07T07:24:17;2.20;99.90
2973;DHT22;1496;51.404;7.232;2023-12-07T07:26:42;2.20;99.90
2973;DHT22;1496;51.404;7.232;2023-12-07T07:29:08;2.30;99.90
2973;DHT22;1496;51.404;7.232;2023-12-07T07:31:33;2.20;99.90
2973;DHT22;1496;51.404;7.232;2023-12-07T07:34:00;2.20;99.90
2973;DHT22;1496;51.404;7.232;2023-12-07T07:36:26;2.10;99.90
2973;DHT22;1496;51.404;7.232;2023-12-07T07:38:52;2.30;99.90
2973;DHT22;1496;51.404;7.232;2023-12-07T07:41:18;2.30;99.90
2973;DHT22;1496;51.404;7.232;2023-12-07T07:43:44;2.40;99.90
2973;DHT22;1496;51.404;7.232;2023-12-07T07:46:10;2.30;99.90
2973;DHT22;1496;51.404;7.232;2023-12-07T07:48:36;2.20;99.90
2973;DHT22;1496;51.404;7.232;2023-12-07T07:51:03;1.90;99.90
2973;DHT22;1496;51.404;7.232;2023-12-07T07:53:28;1.90;99.90
2973;DHT22;1496;51.404;7.232;2023-12-07T07:55:54;2.00;99.90
2973;DHT22;1496;51.404;7.232;2023-12-07T07:58:20;2.10;99.90
2973;DHT22;1496;51.404;7.232;2023-12-07T08:00:46;2.00;99.90
2973;DHT22;1496;51.404;7.232;2023-12-07T08:03:12;1.90;99.90
2973;DHT22;1496;51.404;7.232;2023-12-07T08:05:38;2.20;99.90
2973;DHT22;1496;51.404;7.232;2023-12-07T08:08:03;2.00;99.90
2973;DHT22;1496;51.404;7.232;2023-12-07T08:10:29;2.40;99.90
2973;DHT22;1496;51.404;7.232;2023-12-07T08:12:55;2.30;99.90
2973;DHT22;1496;51.404;7.232;2023-12-07T08:15:20;2.20;99.90
2973;DHT22;1496;51.404;7.232;2023-12-07T08:17:47;2.30;99.90
2973;DHT22;1496;51.404;7.232;2023-12-07T08:20:13;2.10;99.90
2973;DHT22;1496;51.404;7.232;2023-12-07T08:22:40;2.10;99.90
2973;DHT22;1496;51.404;7.232;2023-12-07T08:25:09;2.20;99.90
2973;DHT22;1496;51.404;7.232;2023-12-07T08:27:37;2.00;99.90
2973;DHT22;1496;51.404;7.232;2023-12-07T08:30:04;2.30;99.90
2973;DHT22;1496;51.404;7.232;2023-12-07T08:32:30;2.00;99.90
2973;DHT22;1496;51.404;7.232;2023-12-07T08:34:56;1.90;99.90
2973;DHT22;1496;51.404;7.232;2023-12-07T08:37:22;2.00;99.90
2973;DHT22;1496;51.404;7.232;2023-12-07T08:39:47;2.40;99.90
2973;DHT22;1496;51.404;7.232;2023-12-07T08:42:14;2.10;99.90
2973;DHT22;1496;51.404;7.232;2023-12-07T08:44:39;2.20;99.90
2973;DHT22;1496;51.404;7.232;2023-12-07T08:47:05;2.10;99.90
2973;DHT22;1496;51.404;7.232;2023-12-07T08:49:31;2.30;99.90
2973;DHT22;1496;51.404;7.232;2023-12-07T08:51:57;2.10;99.90
2973;DHT22;1496;51.404;7.232;2023-12-07T08:54:23;2.10;99.90
2973;DHT22;1496;51.404;7.232;2023-12-07T08:56:48;2.30;99.90
2973;DHT22;1496;51.404;7.232;2023-12-07T08:59:14;2.20;99.90
2973;DHT22;1496;51.404;7.232;2023-12-07T09:01:40;2.10;99.90
2973;DHT22;1496;51.404;7.232;2023-12-07T09:04:05;2.40;99.90
2973;DHT22;1496;51.404;7.232;2023-12-07T09:06:31;2.30;99.90
2973;DHT22;1496;51.404;7.232;2023-12-07T09:08:57;2.60;99.90
2973;DHT22;1496;51.404;7.232;2023-12-07T09:11:23;2.30;99.90
2973;DHT22;1496;51.404;7.232;2023-12-07T09:13:50;2.40;99.90
2973;DHT22;1496;51.404;7.232;2023-12-07T09:16:15;2.60;99.90
2973;DHT22;1496;51.404;7.232;2023-12-07T09:18:42;2.40;99.90
2973;DHT22;1496;51.404;7.232;2023-12-07T09:21:08;2.50;99.90
2973;DHT22;1496;51.404;7.232;2023-12-07T09:23:34;2.70;99.90
2973;DHT22;1496;51.404;7.232;2023-12-07T09:26:00;2.50;99.90
2973;DHT22;1496;51.404;7.232;2023-12-07T09:28:26;2.60;99.90
2973;DHT22;1496;51.404;7.232;2023-12-07T09:30:52;2.90;99.90
2973;DHT22;1496;51.404;7.232;2023-12-07T09:33:18;2.90;99.90
2973;DHT22;1496;51.404;7.232;2023-12-07T09:35:44;3.10;99.90
2973;DHT22;1496;51.404;7.232;2023-12-07T09:38:09;3.20;99.90
2973;DHT22;1496;51.404;7.232;2023-12-07T09:40:35;3.20;99.90
2973;DHT22;1496;51.404;7.232;2023-12-07T09:43:01;3.00;99.90
2973;DHT22;1496;51.404;7.232;2023-12-07T09:45:27;3.30;99.90
2973;DHT22;1496;51.404;7.232;2023-12-07T09:47:53;3.20;99.90
2973;DHT22;1496;51.404;7.232;2023-12-07T09:50:21;3.20;99.90
2973;DHT22;1496;51.404;7.232;2023-12-07T09:52:48;3.00;99.90
2973;DHT22;1496;51.404;7.232;2023-12-07T09:55:16;3.10;99.90
2973;DHT22;1496;51.404;7.232;2023-12-07T09:57:43;3.20;99.90
2973;DHT22;1496;51.404;7.232;2023-12-07T10:00:10;3.00;99.90
2973;DHT22;1496;51.404;7.232;2023-12-07T10:02:38;3.10;99.90
2973;DHT22;1496;51.404;7.232;2023-12-07T10:07:33;3.40;99.90
2973;DHT22;1496;51.404;7.232;2023-12-07T10:10:03;3.40;99.90
2973;DHT22;1496;51.404;7.232;2023-12-07T10:12:33;3.30;99.90
2973;DHT22;1496;51.404;7.232;2023-12-07T10:15:11;3.40;99.90
2973;DHT22;1496;51.404;7.232;2023-12-07T10:17:58;3.30;99.90
2973;DHT22;1496;51.404;7.232;2023-12-07T10:20:29;3.50;99.90
2973;DHT22;1496;51.404;7.232;2023-12-07T10:23:04;3.50;99.90
2973;DHT22;1496;51.404;7.232;2023-12-07T10:25:32;3.70;99.90
2973;DHT22;1496;51.404;7.232;2023-12-07T10:27:58;3.70;99.90
2973;DHT22;1496;51.404;7.232;2023-12-07T10:30:23;3.70;99.90
2973;DHT22;1496;51.404;7.232;2023-12-07T10:32:51;3.70;99.90
2973;DHT22;1496;51.404;7.232;2023-12-07T10:35:18;3.90;99.90
2973;DHT22;1496;51.404;7.232;2023-12-07T10:37:46;3.90;99.90
2973;DHT22;1496;51.404;7.232;2023-12-07T10:40:12;4.00;99.90
2973;DHT22;1496;51.404;7.232;2023-12-07T10:42:41;4.10;99.90
2973;DHT22;1496;51.404;7.232;2023-12-07T10:45:07;4.10;46.50
2973;DHT22;1496;51.404;7.232;2023-12-07T10:47:38;4.10;99.90
2973;DHT22;1496;51.404;7.232;2023-12-07T10:53:18;4.00;99.90
2973;DHT22;1496;51.404;7.232;2023-12-07T10:55:55;4.10;99.90
2973;DHT22;1496;51.404;7.232;2023-12-07T10:58:23;4.20;99.90
2973;DHT22;1496;51.404;7.232;2023-12-07T11:00:52;4.20;99.90
2973;DHT22;1496;51.404;7.232;2023-12-07T11:03:17;4.20;99.90
2973;DHT22;1496;51.404;7.232;2023-12-07T11:05:49;4.10;99.90
2973;DHT22;1496;51.404;7.232;2023-12-07T11:11:15;4.20;99.90
2973;DHT22;1496;51.404;7.232;2023-12-07T11:14:06;4.30;99.90
2973;DHT22;1496;51.404;7.232;2023-12-07T11:16:36;4.30;99.90
2973;DHT22;1496;51.404;7.232;2023-12-07T11:19:03;4.40;99.90
2973;DHT22;1496;51.404;7.232;2023-12-07T11:21:31;4.40;99.90
2973;DHT22;1496;51.404;7.232;2023-12-07T11:24:00;4.60;99.90
2973;DHT22;1496;51.404;7.232;2023-12-07T11:26:29;4.50;99.90
2973;DHT22;1496;51.404;7.232;2023-12-07T11:28:55;4.50;99.90
2973;DHT22;1496;51.404;7.232;2023-12-07T11:31:22;4.50;99.90
2973;DHT22;1496;51.404;7.232;2023-12-07T11:33:48;4.40;99.90
2973;DHT22;1496;51.404;7.232;2023-12-07T11:36:13;4.40;99.90
2973;DHT22;1496;51.404;7.232;2023-12-07T11:41:42;4.40;99.90
2973;DHT22;1496;51.404;7.232;2023-12-07T11:44:09;4.30;99.90
2973;DHT22;1496;51.404;7.232;2023-12-07T11:46:36;4.40;99.90
2973;DHT22;1496;51.404;7.232;2023-12-07T11:49:02;4.20;99.90
2973;DHT22;1496;51.404;7.232;2023-12-07T11:51:30;4.10;99.90
2973;DHT22;1496;51.404;7.232;2023-12-07T11:53:55;4.20;99.90
2973;DHT22;1496;51.404;7.232;2023-12-07T11:56:21;4.00;99.90
2973;DHT22;1496;51.404;7.232;2023-12-07T11:58:47;4.00;99.90
2973;DHT22;1496;51.404;7.232;2023-12-07T12:01:14;4.00;99.90
2973;DHT22;1496;51.404;7.232;2023-12-07T12:03:40;4.00;99.90
2973;DHT22;1496;51.404;7.232;2023-12-07T12:06:06;3.90;99.90
2973;DHT22;1496;51.404;7.232;2023-12-07T12:08:35;4.10;99.90
2973;DHT22;1496;51.404;7.232;2023-12-07T12:11:01;4.20;99.90
2973;DHT22;1496;51.404;7.232;2023-12-07T12:13:35;4.10;99.90
2973;DHT22;1496;51.404;7.232;2023-12-07T12:16:01;4.10;99.90
2973;DHT22;1496;51.404;7.232;2023-12-07T12:18:27;4.10;99.90
2973;DHT22;1496;51.404;7.232;2023-12-07T12:20:54;4.00;99.90
2973;DHT22;1496;51.404;7.232;2023-12-07T12:23:20;4.20;99.90
2973;DHT22;1496;51.404;7.232;2023-12-07T12:25:46;4.20;99.90
2973;DHT22;1496;51.404;7.232;2023-12-07T12:28:15;4.20;99.90
2973;DHT22;1496;51.404;7.232;2023-12-07T12:30:41;4.40;99.90
2973;DHT22;1496;51.404;7.232;2023-12-07T12:33:07;4.20;99.90
2973;DHT22;1496;51.404;7.232;2023-12-07T12:35:33;4.20;99.90
2973;DHT22;1496;51.404;7.232;2023-12-07T12:37:59;4.30;99.90
2973;DHT22;1496;51.404;7.232;2023-12-07T12:40:27;4.20;99.90
2973;DHT22;1496;51.404;7.232;2023-12-07T12:42:54;4.30;99.90
2973;DHT22;1496;51.404;7.232;2023-12-07T12:45:20;4.20;99.90
2973;DHT22;1496;51.404;7.232;2023-12-07T12:47:47;4.20;99.90
2973;DHT22;1496;51.404;7.232;2023-12-07T12:50:33;4.10;99.90
2973;DHT22;1496;51.404;7.232;2023-12-07T12:52:59;4.00;99.90
2973;DHT22;1496;51.404;7.232;2023-12-07T12:55:26;4.00;99.90
2973;DHT22;1496;51.404;7.232;2023-12-07T12:57:52;4.00;99.90
2973;DHT22;1496;51.404;7.232;2023-12-07T13:00:18;3.90;99.90
2973;DHT22;1496;51.404;7.232;2023-12-07T13:02:43;4.10;99.90
2973;DHT22;1496;51.404;7.232;2023-12-07T13:05:09;4.20;99.90
2973;DHT22;1496;51.404;7.232;2023-12-07T13:07:34;4.10;99.90
2973;DHT22;1496;51.404;7.232;2023-12-07T13:10:01;4.10;99.90
2973;DHT22;1496;51.404;7.232;2023-12-07T13:12:27;4.20;99.90
2973;DHT22;1496;51.404;7.232;2023-12-07T13:14:54;4.20;99.90
2973;DHT22;1496;51.404;7.232;2023-12-07T13:17:20;4.30;99.90
2973;DHT22;1496;51.404;7.232;2023-12-07T13:19:45;4.20;99.90
2973;DHT22;1496;51.404;7.232;2023-12-07T13:22:11;4.20;99.90
2973;DHT22;1496;51.404;7.232;2023-12-07T13:24:37;4.30;99.90
2973;DHT22;1496;51.404;7.232;2023-12-07T13:27:03;4.30;99.90
2973;DHT22;1496;51.404;7.232;2023-12-07T13:29:29;4.10;99.90
2973;DHT22;1496;51.404;7.232;2023-12-07T13:31:55;4.00;99.90
2973;DHT22;1496;51.404;7.232;2023-12-07T13:34:20;4.10;99.90
2973;DHT22;1496;51.404;7.232;2023-12-07T13:36:47;4.00;99.90
2973;DHT22;1496;51.404;7.232;2023-12-07T13:39:16;4.20;99.90
2973;DHT22;1496;51.404;7.232;2023-12-07T13:41:46;4.10;99.90
2973;DHT22;1496;51.404;7.232;2023-12-07T13:44:13;4.20;99.90
2973;DHT22;1496;51.404;7.232;2023-12-07T13:46:38;4.00;99.90
2973;DHT22;1496;51.404;7.232;2023-12-07T13:49:04;3.90;99.90
2973;DHT22;1496;51.404;7.232;2023-12-07T13:51:30;4.00;99.90
2973;DHT22;1496;51.404;7.232;2023-12-07T13:53:55;3.80;99.90
2973;DHT22;1496;51.404;7.232;2023-12-07T13:56:21;3.80;99.90
2973;DHT22;1496;51.404;7.232;2023-12-07T13:58:49;3.80;99.90
2973;DHT22;1496;51.404;7.232;2023-12-07T14:01:19;3.90;99.90
2973;DHT22;1496;51.404;7.232;2023-12-07T14:03:45;3.80;99.90
2973;DHT22;1496;51.404;7.232;2023-12-07T14:06:10;3.80;99.90
2973;DHT22;1496;51.404;7.232;2023-12-07T14:08:38;3.80;99.90
2973;DHT22;1496;51.404;7.232;2023-12-07T14:11:03;3.80;99.90
2973;DHT22;1496;51.404;7.232;2023-12-07T14:13:29;3.80;99.90
2973;DHT22;1496;51.404;7.232;2023-12-07T14:15:55;3.90;99.90
2973;DHT22;1496;51.404;7.232;2023-12-07T14:18:20;3.90;99.90
2973;DHT22;1496;51.404;7.232;2023-12-07T14:20:46;4.00;99.90
2973;DHT22;1496;51.404;7.232;2023-12-07T14:23:12;3.90;99.90
2973;DHT22;1496;51.404;7.232;2023-12-07T14:25:37;3.80;99.90
2973;DHT22;1496;51.404;7.232;2023-12-07T14:28:05;3.80;99.90
2973;DHT22;1496;51.404;7.232;2023-12-07T14:30:31;3.90;99.90
2973;DHT22;1496;51.404;7.232;2023-12-07T14:32:56;3.80;99.90
2973;DHT22;1496;51.404;7.232;2023-12-07T14:35:22;3.80;99.90
2973;DHT22;1496;51.404;7.232;2023-12-07T14:37:48;3.70;99.90
2973;DHT22;1496;51.404;7.232;2023-12-07T14:40:17;3.70;99.90
2973;DHT22;1496;51.404;7.232;2023-12-07T14:42:44;3.70;99.90
2973;DHT22;1496;51.404;7.232;2023-12-07T14:45:11;3.60;99.90
2973;DHT22;1496;51.404;7.232;2023-12-07T14:47:36;3.40;99.90
2973;DHT22;1496;51.404;7.232;2023-12-07T14:50:02;3.50;99.90
2973;DHT22;1496;51.404;7.232;2023-12-07T14:52:28;3.60;99.90
2973;DHT22;1496;51.404;7.232;2023-12-07T14:54:54;3.50;99.90
2973;DHT22;1496;51.404;7.232;2023-12-07T14:57:20;3.60;99.90
2973;DHT22;1496;51.404;7.232;2023-12-07T14:59:46;3.40;99.90
2973;DHT22;1496;51.404;7.232;2023-12-07T15:02:13;3.50;99.90
2973;DHT22;1496;51.404;7.232;2023-12-07T15:04:39;3.20;99.90
2973;DHT22;1496;51.404;7.232;2023-12-07T15:07:04;3.30;99.90
2973;DHT22;1496;51.404;7.232;2023-12-07T15:09:31;3.20;99.90
2973;DHT22;1496;51.404;7.232;2023-12-07T15:11:57;3.30;99.90
2973;DHT22;1496;51.404;7.232;2023-12-07T15:14:23;3.30;99.90
2973;DHT22;1496;51.404;7.232;2023-12-07T15:16:49;3.30;99.90
2973;DHT22;1496;51.404;7.232;2023-12-07T15:19:14;3.20;99.90
2973;DHT22;1496;51.404;7.232;2023-12-07T15:21:40;3.30;99.90
2973;DHT22;1496;51.404;7.232;2023-12-07T15:24:06;3.30;99.90
2973;DHT22;1496;51.404;7.232;2023-12-07T15:26:32;3.30;99.90
2973;DHT22;1496;51.404;7.232;2023-12-07T15:28:57;3.20;99.90
2973;DHT22;1496;51.404;7.232;2023-12-07T15:34:00;3.10;99.90
2973;DHT22;1496;51.404;7.232;2023-12-07T15:36:26;3.10;99.90
2973;DHT22;1496;51.404;7.232;2023-12-07T15:38:51;3.10;99.90
2973;DHT22;1496;51.404;7.232;2023-12-07T15:41:18;3.20;99.90
2973;DHT22;1496;51.404;7.232;2023-12-07T15:43:44;3.10;99.90
2973;DHT22;1496;51.404;7.232;2023-12-07T15:46:11;3.00;99.90
2973;DHT22;1496;51.404;7.232;2023-12-07T15:48:36;2.90;99.90
2973;DHT22;1496;51.404;7.232;2023-12-07T15:51:02;2.90;99.90
2973;DHT22;1496;51.404;7.232;2023-12-07T15:53:28;2.90;99.90
2973;DHT22;1496;51.404;7.232;2023-12-07T15:55:54;3.10;99.90
2973;DHT22;1496;51.404;7.232;2023-12-07T15:58:20;3.00;99.90
2973;DHT22;1496;51.404;7.232;2023-12-07T16:00:46;3.00;99.90
2973;DHT22;1496;51.404;7.232;2023-12-07T16:03:12;2.90;99.90
2973;DHT22;1496;51.404;7.232;2023-12-07T16:05:37;2.90;99.90
2973;DHT22;1496;51.404;7.232;2023-12-07T16:08:03;2.90;99.90
2973;DHT22;1496;51.404;7.232;2023-12-07T16:10:29;2.90;99.90
2973;DHT22;1496;51.404;7.232;2023-12-07T16:12:54;2.80;99.90
2973;DHT22;1496;51.404;7.232;2023-12-07T16:15:20;2.90;99.90
2973;DHT22;1496;51.404;7.232;2023-12-07T16:17:46;3.00;99.90
2973;DHT22;1496;51.404;7.232;2023-12-07T16:20:13;2.80;99.90
2973;DHT22;1496;51.404;7.232;2023-12-07T16:22:43;2.80;99.90
2973;DHT22;1496;51.404;7.232;2023-12-07T16:25:09;2.80;99.90
2973;DHT22;1496;51.404;7.232;2023-12-07T16:27:35;2.80;99.90
2973;DHT22;1496;51.404;7.232;2023-12-07T16:30:00;2.90;99.90
2973;DHT22;1496;51.404;7.232;2023-12-07T16:32:26;2.70;99.90